Time;durP1;ratioP1;P1;durP2;ratioP2;P2;SDS_P1;SDS_P2;PMS_P1;PMS_P2;Temp;Humidity;BMP_temperature;BMP_pressure;BME280_temperature;BME280_humidity;BME280_pressure;Samples;Min_cycle;Max_cycle;Signal;HPM_P1;HPM_P2
2023/12/20 00:02:16;;;;;;;2.35;2.13;;;;;6.10;98537.00;;;;5032945;28;20490;-63
2023/12/20 00:04:43;;;;;;;2.72;2.30;;;;;6.00;98543.00;;;;5032402;28;20048;-62
2023/12/20 00:07:10;;;;;;;2.22;2.03;;;;;5.90;98541.00;;;;5032867;28;20095;-63
2023/12/20 00:09:36;;;;;;;2.60;2.28;;;;;5.90;98543.00;;;;5032839;28;20084;-63
2023/12/20 00:12:03;;;;;;;2.35;2.05;;;;;5.90;98539.00;;;;5032794;28;20060;-61
2023/12/20 00:14:30;;;;;;;3.92;2.28;;;;;5.90;98551.00;;;;5032515;28;20120;-63
2023/12/20 00:16:56;;;;;;;3.63;2.47;;;;;5.90;98551.00;;;;5032540;28;20064;-63
2023/12/20 00:19:23;;;;;;;2.70;2.33;;;;;5.90;98547.00;;;;5032641;28;20620;-63
2023/12/20 00:21:50;;;;;;;2.65;2.10;;;;;5.90;98553.00;;;;5032397;28;20073;-63
2023/12/20 00:24:17;;;;;;;2.72;2.53;;;;;5.90;98551.00;;;;5031871;28;20103;-63
2023/12/20 00:26:44;;;;;;;2.85;2.38;;;;;6.00;98543.00;;;;5032367;28;20088;-63
2023/12/20 00:29:10;;;;;;;2.55;2.25;;;;;6.00;98536.00;;;;5032688;28;20124;-63
2023/12/20 00:31:37;;;;;;;2.80;2.35;;;;;6.00;98541.00;;;;5032383;28;20047;-63
2023/12/20 00:34:03;;;;;;;3.63;2.58;;;;;6.00;98530.00;;;;5031712;28;20401;-63
2023/12/20 00:36:30;;;;;;;3.70;2.25;;;;;6.00;98526.00;;;;5032210;28;20476;-63
2023/12/20 00:38:57;;;;;;;2.40;2.10;;;;;6.00;98537.00;;;;5032176;28;20128;-63
2023/12/20 00:41:23;;;;;;;2.42;2.08;;;;;6.00;98535.00;;;;5032322;28;20041;-63
2023/12/20 00:43:50;;;;;;;2.30;2.10;;;;;6.10;98525.00;;;;5031829;28;20312;-63
2023/12/20 00:46:16;;;;;;;2.22;2.03;;;;;6.00;98528.00;;;;5032184;28;20056;-63
2023/12/20 00:48:45;;;;;;;2.40;2.08;;;;;6.10;98523.00;;;;5032146;28;20128;-63
2023/12/20 00:51:12;;;;;;;2.30;2.10;;;;;6.00;98518.00;;;;5030952;28;20065;-63
2023/12/20 00:53:38;;;;;;;2.67;2.17;;;;;6.00;98516.00;;;;5030164;28;20041;-61
2023/12/20 00:56:05;;;;;;;1.60;1.50;;;;;6.00;98511.00;;;;5031885;28;20048;-63
2023/12/20 00:58:32;;;;;;;2.17;1.90;;;;;6.00;98506.00;;;;5030873;28;20107;-63
2023/12/20 01:00:58;;;;;;;1.70;1.60;;;;;6.00;98507.00;;;;5032016;28;20041;-63
2023/12/20 01:03:25;;;;;;;2.17;1.90;;;;;6.10;98496.00;;;;5031452;28;20056;-63
2023/12/20 01:05:52;;;;;;;1.75;1.52;;;;;6.10;98501.00;;;;5032020;28;20052;-63
2023/12/20 01:08:18;;;;;;;2.97;1.77;;;;;6.10;98505.00;;;;5031733;28;20092;-63
2023/12/20 01:10:46;;;;;;;2.55;1.90;;;;;6.10;98506.00;;;;5032341;28;20116;-62
2023/12/20 01:13:13;;;;;;;1.80;1.58;;;;;6.10;98502.00;;;;5031979;28;20041;-62
2023/12/20 01:15:40;;;;;;;1.70;1.60;;;;;6.00;98503.00;;;;5031445;28;20084;-63
2023/12/20 01:18:06;;;;;;;2.03;1.70;;;;;6.00;98498.00;;;;5031903;28;20065;-63
2023/12/20 01:20:33;;;;;;;1.55;1.40;;;;;6.00;98506.00;;;;5031775;28;20049;-62
2023/12/20 01:22:59;;;;;;;2.78;1.52;;;;;6.10;98503.00;;;;5031778;28;20045;-63
2023/12/20 01:25:26;;;;;;;2.40;1.40;;;;;6.10;98512.00;;;;5031351;28;20120;-64
2023/12/20 01:27:53;;;;;;;2.67;1.70;;;;;6.10;98498.00;;;;5031819;28;20084;-63
2023/12/20 01:30:19;;;;;;;1.58;1.35;;;;;6.10;98505.00;;;;5031794;28;20038;-62
2023/12/20 01:32:46;;;;;;;1.73;1.60;;;;;6.20;98491.00;;;;5033191;28;20057;-63
2023/12/20 01:35:13;;;;;;;1.73;1.63;;;;;6.20;98485.00;;;;5031803;28;20046;-63
2023/12/20 01:37:40;;;;;;;1.60;1.45;;;;;6.20;98491.00;;;;5031795;28;20041;-63
2023/12/20 01:40:07;;;;;;;2.20;1.70;;;;;6.20;98483.00;;;;5032180;28;20111;-64
2023/12/20 01:42:34;;;;;;;1.55;1.45;;;;;6.20;98493.00;;;;5031592;28;20100;-64
2023/12/20 01:45:02;;;;;;;2.00;1.60;;;;;6.20;98507.00;;;;5032368;28;20041;-63
2023/12/20 01:47:29;;;;;;;1.50;1.40;;;;;6.20;98510.00;;;;5033115;28;20054;-63
2023/12/20 01:49:56;;;;;;;3.55;1.50;;;;;6.20;98518.00;;;;5033349;28;20466;-63
2023/12/20 01:52:25;;;;;;;2.88;1.63;;;;;6.10;98521.00;;;;5030307;28;20406;-61
2023/12/20 01:54:54;;;;;;;2.58;1.98;;;;;6.10;98515.00;;;;5031222;28;20065;-61
2023/12/20 01:57:21;;;;;;;1.75;1.65;;;;;6.10;98498.00;;;;5031545;28;20041;-62
2023/12/20 01:59:48;;;;;;;2.42;2.22;;;;;6.20;98494.00;;;;5031668;28;20444;-62
2023/12/20 02:02:14;;;;;;;1.83;1.73;;;;;6.30;98506.00;;;;5031281;28;20045;-62
2023/12/20 02:04:41;;;;;;;2.17;1.88;;;;;6.30;98514.00;;;;5030783;28;20051;-62
2023/12/20 02:07:08;;;;;;;2.10;1.70;;;;;6.30;98522.00;;;;5031508;28;20092;-62
2023/12/20 02:09:35;;;;;;;1.75;1.65;;;;;6.30;98519.00;;;;5030309;28;20108;-62
2023/12/20 02:12:02;;;;;;;2.17;1.98;;;;;6.40;98517.00;;;;5035210;28;20073;-62
2023/12/20 02:14:28;;;;;;;1.95;1.80;;;;;6.40;98508.00;;;;5034547;28;20047;-62
2023/12/20 02:16:55;;;;;;;1.65;1.55;;;;;6.40;98495.00;;;;5035019;28;20042;-61
2023/12/20 02:19:21;;;;;;;2.30;1.98;;;;;6.40;98502.00;;;;5035198;28;20045;-62
2023/12/20 02:21:48;;;;;;;2.65;1.80;;;;;6.40;98524.00;;;;5035278;28;20144;-63
2023/12/20 02:24:15;;;;;;;2.47;1.90;;;;;6.40;98518.00;;;;5033152;28;20482;-62
2023/12/20 02:26:41;;;;;;;2.70;2.25;;;;;6.30;98496.00;;;;5034699;28;20112;-63
2023/12/20 02:29:12;;;;;;;2.20;2.00;;;;;6.40;98494.00;;;;5033675;28;20053;-62
2023/12/20 02:31:40;;;;;;;2.65;2.00;;;;;6.40;98492.00;;;;5034609;28;20133;-63
2023/12/20 02:34:06;;;;;;;2.10;1.90;;;;;6.40;98496.00;;;;5033941;28;20116;-62
2023/12/20 02:36:33;;;;;;;1.98;1.75;;;;;6.50;98507.00;;;;5034575;28;20483;-61
2023/12/20 02:38:59;;;;;;;1.83;1.63;;;;;6.40;98515.00;;;;5034538;28;20045;-62
2023/12/20 02:41:26;;;;;;;2.10;1.90;;;;;6.40;98515.00;;;;5034786;28;20050;-64
2023/12/20 02:43:52;;;;;;;2.25;2.05;;;;;6.40;98501.00;;;;5034183;28;20091;-62
2023/12/20 02:46:19;;;;;;;2.50;2.05;;;;;6.40;98501.00;;;;5034502;28;20045;-62
2023/12/20 02:48:47;;;;;;;2.17;1.98;;;;;6.50;98496.00;;;;5034653;28;20045;-62
2023/12/20 02:51:14;;;;;;;2.10;1.90;;;;;6.50;98499.00;;;;5034596;28;20037;-61
2023/12/20 02:53:40;;;;;;;2.28;2.00;;;;;6.50;98512.00;;;;5032986;28;20045;-62
2023/12/20 02:56:07;;;;;;;1.85;1.75;;;;;6.40;98511.00;;;;5034571;28;20053;-62
2023/12/20 02:58:33;;;;;;;2.45;2.22;;;;;6.40;98517.00;;;;5034537;28;20087;-62
2023/12/20 03:01:00;;;;;;;2.90;2.60;;;;;6.50;98525.00;;;;5034098;28;20549;-61
2023/12/20 03:03:27;;;;;;;2.78;2.28;;;;;6.50;98519.00;;;;5032608;28;20060;-62
2023/12/20 03:05:53;;;;;;;2.00;1.90;;;;;6.60;98531.00;;;;5034256;28;20041;-62
2023/12/20 03:08:20;;;;;;;2.40;2.20;;;;;6.60;98534.00;;;;5034327;28;20041;-62
2023/12/20 03:10:46;;;;;;;3.13;2.70;;;;;6.60;98537.00;;;;5034702;28;20124;-62
2023/12/20 03:13:13;;;;;;;3.25;2.92;;;;;6.70;98522.00;;;;5032884;28;20095;-62
2023/12/20 03:15:40;;;;;;;3.67;2.65;;;;;6.80;98527.00;;;;5033413;28;20103;-61
2023/12/20 03:18:07;;;;;;;3.47;2.67;;;;;6.80;98543.00;;;;5033898;28;20045;-62
2023/12/20 03:20:34;;;;;;;3.15;2.83;;;;;6.90;98540.00;;;;5034261;28;20067;-62
2023/12/20 03:23:01;;;;;;;2.92;2.63;;;;;7.00;98545.00;;;;5031439;28;20483;-61
2023/12/20 03:25:27;;;;;;;3.33;3.03;;;;;7.00;98535.00;;;;5033333;28;20046;-62
2023/12/20 03:27:54;;;;;;;3.13;2.83;;;;;7.00;98534.00;;;;5033848;28;20495;-62
2023/12/20 03:30:21;;;;;;;3.10;2.80;;;;;7.00;98527.00;;;;5033902;28;20045;-61
2023/12/20 03:32:47;;;;;;;4.25;3.28;;;;;7.00;98521.00;;;;5034340;28;20068;-62
2023/12/20 03:35:14;;;;;;;4.10;3.70;;;;;6.90;98525.00;;;;5033374;28;20045;-62
2023/12/20 03:37:41;;;;;;;3.25;2.95;;;;;6.90;98529.00;;;;5033651;28;20068;-62
2023/12/20 03:40:08;;;;;;;3.97;3.28;;;;;6.90;98540.00;;;;5033509;28;20049;-62
2023/12/20 03:42:34;;;;;;;3.40;3.10;;;;;6.90;98531.00;;;;5033575;28;20042;-62
2023/12/20 03:45:01;;;;;;;4.05;3.70;;;;;6.90;98540.00;;;;5033253;28;20133;-61
2023/12/20 03:47:28;;;;;;;4.03;3.63;;;;;6.90;98549.00;;;;5033390;28;20112;-62
2023/12/20 03:49:54;;;;;;;4.45;3.63;;;;;6.90;98545.00;;;;5033428;28;20060;-62
2023/12/20 03:52:21;;;;;;;5.22;4.28;;;;;6.90;98555.00;;;;5033450;28;20076;-62
2023/12/20 03:54:48;;;;;;;4.00;3.70;;;;;6.90;98559.00;;;;5032712;28;20056;-62
2023/12/20 03:57:14;;;;;;;4.38;3.92;;;;;6.90;98554.00;;;;5033241;28;20072;-62
2023/12/20 03:59:41;;;;;;;5.32;4.20;;;;;6.90;98556.00;;;;5033322;28;20128;-62
2023/12/20 04:02:07;;;;;;;6.75;4.97;;;;;6.90;98559.00;;;;5033953;28;20068;-62
2023/12/20 04:04:34;;;;;;;5.20;4.20;;;;;7.00;98562.00;;;;5032704;28;20049;-62
2023/12/20 04:07:01;;;;;;;6.28;4.72;;;;;7.00;98568.00;;;;5033091;28;20045;-62
2023/12/20 04:09:27;;;;;;;5.82;4.55;;;;;7.00;98569.00;;;;5033385;28;20058;-62
2023/12/20 04:11:54;;;;;;;5.57;5.00;;;;;7.10;98567.00;;;;5033124;28;20046;-62
2023/12/20 04:14:20;;;;;;;5.43;4.72;;;;;7.10;98566.00;;;;5032835;28;20073;-62
2023/12/20 04:16:47;;;;;;;6.55;5.63;;;;;7.20;98567.00;;;;5033322;28;20045;-63
2023/12/20 04:19:13;;;;;;;10.00;6.10;;;;;7.10;98554.00;;;;5033226;28;20505;-63
2023/12/20 04:21:40;;;;;;;7.15;5.97;;;;;7.10;98564.00;;;;5033073;28;20055;-62
2023/12/20 04:24:08;;;;;;;6.82;5.10;;;;;7.20;98567.00;;;;5032717;28;20060;-63
2023/12/20 04:26:34;;;;;;;6.15;5.45;;;;;7.20;98563.00;;;;5033119;28;20049;-62
2023/12/20 04:29:01;;;;;;;5.97;5.15;;;;;7.20;98575.00;;;;5033246;28;20050;-62
2023/12/20 04:31:27;;;;;;;6.07;5.05;;;;;7.10;98575.00;;;;5033592;28;20042;-63
2023/12/20 04:33:54;;;;;;;5.43;4.88;;;;;7.20;98579.00;;;;5032753;28;20391;-63
2023/12/20 04:36:20;;;;;;;8.55;5.63;;;;;7.20;98590.00;;;;5033198;28;20045;-62
2023/12/20 04:38:47;;;;;;;5.78;4.80;;;;;7.20;98592.00;;;;5032524;28;20060;-63
2023/12/20 04:41:18;;;;;;;5.60;5.10;;;;;7.10;98585.00;;;;5032434;28;20037;-62
2023/12/20 04:43:45;;;;;;;6.45;5.45;;;;;7.10;98585.00;;;;5030903;28;20045;-63
2023/12/20 04:46:11;;;;;;;6.22;5.40;;;;;7.10;98599.00;;;;5032664;28;20128;-62
2023/12/20 04:48:38;;;;;;;6.03;5.40;;;;;7.20;98590.00;;;;5032796;28;20134;-62
2023/12/20 04:51:05;;;;;;;6.20;5.15;;;;;7.10;98582.00;;;;5032899;28;20052;-61
2023/12/20 04:53:32;;;;;;;5.55;4.97;;;;;7.20;98585.00;;;;5032150;28;20041;-63
2023/12/20 04:55:59;;;;;;;6.40;5.22;;;;;7.20;98592.00;;;;5032853;28;20050;-63
2023/12/20 04:58:25;;;;;;;7.43;5.97;;;;;7.20;98580.00;;;;5032678;28;20073;-63
2023/12/20 05:00:52;;;;;;;6.72;5.40;;;;;7.20;98586.00;;;;5032747;28;20140;-63
2023/12/20 05:03:19;;;;;;;5.47;4.88;;;;;7.10;98603.00;;;;5031330;28;20111;-61
2023/12/20 05:05:45;;;;;;;5.18;4.40;;;;;7.10;98607.00;;;;5031995;28;20073;-61
2023/12/20 05:08:12;;;;;;;5.05;4.55;;;;;7.00;98588.00;;;;5030830;28;20046;-63
2023/12/20 05:10:40;;;;;;;5.43;4.90;;;;;7.00;98588.00;;;;5032024;28;20099;-62
2023/12/20 05:13:07;;;;;;;5.20;4.70;;;;;6.90;98600.00;;;;5032028;28;20037;-63
2023/12/20 05:15:34;;;;;;;5.43;4.35;;;;;6.80;98592.00;;;;5031426;28;20042;-62
2023/12/20 05:18:00;;;;;;;4.25;3.83;;;;;6.70;98589.00;;;;5031968;28;20554;-62
2023/12/20 05:20:27;;;;;;;5.07;4.28;;;;;6.70;98581.00;;;;5031907;28;20057;-63
2023/12/20 05:22:54;;;;;;;4.43;4.03;;;;;6.60;98587.00;;;;5031807;28;20138;-62
2023/12/20 05:25:20;;;;;;;4.47;3.80;;;;;6.60;98607.00;;;;5031325;28;20128;-63
2023/12/20 05:27:48;;;;;;;4.30;3.60;;;;;6.60;98609.00;;;;5032289;28;20072;-62
2023/12/20 05:30:15;;;;;;;4.28;3.53;;;;;6.60;98604.00;;;;5032011;28;20045;-60
2023/12/20 05:32:41;;;;;;;4.65;3.88;;;;;6.60;98613.00;;;;5032077;28;20037;-58
2023/12/20 05:35:08;;;;;;;4.47;3.53;;;;;6.60;98618.00;;;;5031189;28;20041;-63
2023/12/20 05:37:35;;;;;;;4.57;3.95;;;;;6.70;98621.00;;;;5032510;28;20041;-61
2023/12/20 05:40:01;;;;;;;5.07;4.13;;;;;6.70;98630.00;;;;5032109;28;20080;-60
2023/12/20 05:42:28;;;;;;;6.07;3.88;;;;;6.70;98634.00;;;;5032016;28;20053;-58
2023/12/20 05:44:54;;;;;;;4.43;3.90;;;;;6.70;98639.00;;;;5032188;28;20124;-60
2023/12/20 05:47:24;;;;;;;5.13;3.97;;;;;6.70;98654.00;;;;5035915;28;20342;-59
2023/12/20 05:49:51;;;;;;;5.00;3.85;;;;;6.80;98656.00;;;;5035467;28;20050;-61
2023/12/20 05:52:17;;;;;;;4.65;4.00;;;;;6.80;98660.00;;;;5034342;28;20044;-60
2023/12/20 05:54:44;;;;;;;4.80;4.10;;;;;6.70;98663.00;;;;5035160;28;20045;-61
2023/12/20 05:57:11;;;;;;;5.45;4.35;;;;;6.60;98671.00;;;;5036222;28;20045;-62
2023/12/20 05:59:37;;;;;;;3.72;3.13;;;;;6.50;98666.00;;;;5036388;28;20072;-60
2023/12/20 06:02:04;;;;;;;4.60;3.80;;;;;6.50;98668.00;;;;5036137;28;20041;-60
2023/12/20 06:04:31;;;;;;;7.88;4.32;;;;;6.40;98653.00;;;;5033885;28;20079;-63
2023/12/20 06:06:59;;;;;;;7.10;4.90;;;;;6.40;98657.00;;;;5035660;28;20045;-61
2023/12/20 06:09:29;;;;;;;6.15;5.53;;;;;6.50;98667.00;;;;5035767;28;20414;-61
2023/12/20 06:11:57;;;;;;;10.48;4.93;;;;;6.50;98660.00;;;;5035718;28;20050;-61
2023/12/20 06:14:24;;;;;;;6.90;5.70;;;;;6.50;98663.00;;;;5034646;28;20045;-61
2023/12/20 06:16:51;;;;;;;5.28;4.50;;;;;6.50;98663.00;;;;5034968;28;20128;-60
2023/12/20 06:19:17;;;;;;;8.23;5.43;;;;;6.50;98666.00;;;;5034989;28;20045;-58
2023/12/20 06:21:44;;;;;;;6.85;4.57;;;;;6.40;98674.00;;;;5034862;28;20053;-60
2023/12/20 06:24:11;;;;;;;8.43;6.22;;;;;6.40;98670.00;;;;5034286;28;20045;-59
2023/12/20 06:26:38;;;;;;;10.48;7.18;;;;;6.40;98671.00;;;;5034696;28;20355;-59
2023/12/20 06:29:04;;;;;;;9.27;5.90;;;;;6.30;98674.00;;;;5034871;28;20045;-61
2023/12/20 06:31:32;;;;;;;10.30;5.60;;;;;6.30;98672.00;;;;5034862;28;20042;-60
2023/12/20 06:33:59;;;;;;;7.05;4.85;;;;;6.30;98678.00;;;;5034216;28;20518;-60
2023/12/20 06:36:26;;;;;;;9.00;5.10;;;;;6.30;98670.00;;;;5034758;28;20163;-60
2023/12/20 06:38:53;;;;;;;9.25;4.47;;;;;6.30;98671.00;;;;5034829;28;20045;-59
2023/12/20 06:41:19;;;;;;;4.72;3.28;;;;;6.30;98672.00;;;;5034743;28;20505;-60
2023/12/20 06:43:47;;;;;;;4.72;3.33;;;;;6.20;98666.00;;;;5033914;28;20060;-63
2023/12/20 06:46:16;;;;;;;4.80;3.28;;;;;6.20;98671.00;;;;5035342;28;20373;-61
2023/12/20 06:48:44;;;;;;;4.25;2.90;;;;;6.20;98679.00;;;;5034737;28;20041;-61
2023/12/20 06:51:15;;;;;;;5.82;3.22;;;;;6.20;98683.00;;;;5035148;28;20406;-61
2023/12/20 06:53:42;;;;;;;4.22;2.78;;;;;6.30;98678.00;;;;5034194;28;20124;-62
2023/12/20 06:56:11;;;;;;;5.40;2.70;;;;;6.30;98682.00;;;;5034656;28;20041;-61
2023/12/20 06:58:39;;;;;;;3.45;2.47;;;;;6.30;98681.00;;;;5034177;28;20046;-62
2023/12/20 07:01:11;;;;;;;3.97;2.92;;;;;6.40;98688.00;;;;5035797;28;20128;-63
2023/12/20 07:03:37;;;;;;;4.65;2.55;;;;;6.40;98690.00;;;;5032973;28;20049;-63
2023/12/20 07:06:04;;;;;;;5.30;3.13;;;;;6.40;98697.00;;;;5034651;28;20065;-63
2023/12/20 07:08:31;;;;;;;5.15;2.42;;;;;6.40;98686.00;;;;5034709;28;20122;-62
2023/12/20 07:10:57;;;;;;;4.05;2.28;;;;;6.50;98692.00;;;;5034698;28;20075;-63
2023/12/20 07:13:24;;;;;;;6.35;2.55;;;;;6.50;98695.00;;;;5034086;28;20103;-60
2023/12/20 07:15:51;;;;;;;3.78;2.15;;;;;6.40;98693.00;;;;5034475;28;20065;-63
2023/12/20 07:18:18;;;;;;;3.55;1.90;;;;;6.40;98703.00;;;;5034218;28;20068;-64
2023/12/20 07:20:44;;;;;;;4.60;2.70;;;;;6.40;98702.00;;;;5034631;28;20045;-64
2023/12/20 07:23:11;;;;;;;4.57;3.35;;;;;6.40;98696.00;;;;5033914;28;20124;-63
2023/12/20 07:25:38;;;;;;;3.75;2.47;;;;;6.30;98700.00;;;;5034441;28;20120;-64
2023/12/20 07:28:05;;;;;;;5.53;2.80;;;;;6.30;98704.00;;;;5035164;28;20042;-64
2023/12/20 07:30:31;;;;;;;4.95;2.90;;;;;6.30;98703.00;;;;5035990;28;20065;-64
2023/12/20 07:32:58;;;;;;;4.03;2.50;;;;;6.30;98717.00;;;;5034967;28;20060;-64
2023/12/20 07:35:25;;;;;;;4.25;2.70;;;;;6.30;98714.00;;;;5034425;28;20045;-64
2023/12/20 07:37:52;;;;;;;4.75;2.47;;;;;6.30;98719.00;;;;5035129;28;20128;-64
2023/12/20 07:40:18;;;;;;;4.25;2.42;;;;;6.30;98721.00;;;;5033557;28;20048;-64
2023/12/20 07:42:45;;;;;;;3.33;2.60;;;;;6.30;98720.00;;;;5035144;28;20038;-64
2023/12/20 07:45:12;;;;;;;3.55;2.60;;;;;6.30;98721.00;;;;5034372;28;20054;-62
2023/12/20 07:47:38;;;;;;;4.25;2.42;;;;;6.40;98738.00;;;;5034744;28;20095;-64
2023/12/20 07:50:05;;;;;;;5.47;2.22;;;;;6.40;98740.00;;;;5034870;28;20509;-64
2023/12/20 07:52:32;;;;;;;5.70;2.17;;;;;6.40;98735.00;;;;5035421;28;20037;-62
2023/12/20 07:54:59;;;;;;;6.45;2.17;;;;;6.40;98741.00;;;;5035032;28;20041;-63
2023/12/20 07:57:28;;;;;;;4.28;2.17;;;;;6.40;98752.00;;;;5035388;28;20041;-63
2023/12/20 07:59:55;;;;;;;6.85;2.30;;;;;6.40;98745.00;;;;5034112;28;20140;-63
2023/12/20 08:02:22;;;;;;;4.10;2.20;;;;;6.40;98752.00;;;;5036065;28;20077;-63
2023/12/20 08:04:48;;;;;;;3.83;2.15;;;;;6.40;98759.00;;;;5035085;28;20049;-63
2023/12/20 08:07:15;;;;;;;6.40;2.50;;;;;6.40;98751.00;;;;5034490;28;20045;-63
2023/12/20 08:09:43;;;;;;;9.30;2.85;;;;;6.50;98760.00;;;;5036255;28;20083;-65
2023/12/20 08:12:11;;;;;;;6.53;2.42;;;;;6.60;98771.00;;;;5038518;28;20049;-63
2023/12/20 08:14:37;;;;;;;7.22;2.80;;;;;6.60;98763.00;;;;5040444;28;20041;-63
2023/12/20 08:17:04;;;;;;;8.13;3.50;;;;;6.60;98773.00;;;;5040756;28;20076;-63
2023/12/20 08:19:30;;;;;;;8.35;3.33;;;;;6.60;98777.00;;;;5039749;28;20045;-63
2023/12/20 08:21:59;;;;;;;10.52;3.63;;;;;6.70;98782.00;;;;5039817;28;20041;-63
2023/12/20 08:24:26;;;;;;;8.77;3.20;;;;;6.90;98784.00;;;;5037309;28;20437;-65
2023/12/20 08:26:52;;;;;;;5.18;2.53;;;;;6.90;98792.00;;;;5036216;28;20494;-64
2023/12/20 08:29:19;;;;;;;8.68;2.80;;;;;6.90;98784.00;;;;5034132;28;20103;-64
2023/12/20 08:31:46;;;;;;;4.80;2.25;;;;;6.90;98778.00;;;;5033832;28;20064;-64
2023/12/20 08:34:14;;;;;;;8.43;2.72;;;;;6.90;98773.00;;;;5032644;28;20037;-64
2023/12/20 08:36:41;;;;;;;6.10;2.80;;;;;6.90;98769.00;;;;5032936;28;20079;-63
2023/12/20 08:39:08;;;;;;;5.20;2.67;;;;;6.90;98787.00;;;;5032936;28;20395;-64
2023/12/20 08:41:35;;;;;;;12.43;3.10;;;;;6.90;98777.00;;;;5031593;28;20049;-64
2023/12/20 08:44:02;;;;;;;11.63;3.80;;;;;6.90;98770.00;;;;5032021;28;20121;-63
2023/12/20 08:46:28;;;;;;;7.20;2.72;;;;;6.90;98768.00;;;;5032722;28;20046;-64
2023/12/20 08:48:55;;;;;;;8.07;3.30;;;;;7.00;98768.00;;;;5032463;28;20076;-64
2023/12/20 08:51:23;;;;;;;5.40;3.45;;;;;7.10;98770.00;;;;5032730;28;20056;-63
2023/12/20 08:53:50;;;;;;;10.30;3.55;;;;;7.10;98773.00;;;;5037003;28;20069;-62
2023/12/20 08:56:17;;;;;;;9.25;3.95;;;;;7.20;98779.00;;;;5032610;28;20140;-64
2023/12/20 08:58:45;;;;;;;11.10;3.78;;;;;7.20;98767.00;;;;5032398;28;20045;-63
2023/12/20 09:01:12;;;;;;;5.65;2.88;;;;;7.20;98773.00;;;;5032390;28;20116;-64
2023/12/20 09:03:39;;;;;;;7.88;3.00;;;;;7.20;98762.00;;;;5030612;28;20041;-64
2023/12/20 09:06:06;;;;;;;9.88;3.28;;;;;7.20;98771.00;;;;5032088;28;20050;-64
2023/12/20 09:08:33;;;;;;;12.05;3.67;;;;;7.30;98764.00;;;;5032361;28;20050;-64
2023/12/20 09:11:00;;;;;;;8.82;3.45;;;;;7.40;98772.00;;;;5031110;28;20528;-66
2023/12/20 09:13:28;;;;;;;9.93;3.25;;;;;7.40;98777.00;;;;5030467;28;20041;-64
2023/12/20 09:15:56;;;;;;;14.35;3.00;;;;;7.40;98783.00;;;;5014699;28;20060;-64
2023/12/20 09:18:22;;;;;;;11.38;3.35;;;;;7.50;98782.00;;;;5031891;28;20041;-64
2023/12/20 09:20:49;;;;;;;13.05;3.55;;;;;7.50;98786.00;;;;5034440;28;20045;-64
2023/12/20 09:23:17;;;;;;;9.65;2.83;;;;;7.50;98783.00;;;;5036114;28;20041;-64
2023/12/20 09:25:44;;;;;;;7.70;3.17;;;;;7.50;98782.00;;;;5035978;28;20418;-63
2023/12/20 09:28:10;;;;;;;7.25;2.70;;;;;7.50;98775.00;;;;5036096;28;20099;-64
2023/12/20 09:30:39;;;;;;;8.88;3.45;;;;;7.50;98785.00;;;;5034872;28;20495;-63
2023/12/20 09:33:07;;;;;;;10.20;2.78;;;;;7.60;98780.00;;;;5036012;28;20053;-63
2023/12/20 09:35:34;;;;;;;10.45;3.13;;;;;7.60;98777.00;;;;5034313;28;20050;-63
2023/12/20 09:38:01;;;;;;;9.65;3.15;;;;;7.60;98778.00;;;;5035827;28;20418;-64
2023/12/20 09:40:28;;;;;;;11.02;3.15;;;;;7.60;98786.00;;;;5036208;28;20128;-63
2023/12/20 09:43:03;;;;;;;9.80;3.42;;;;;7.60;98783.00;;;;5035606;28;20048;-61
2023/12/20 09:45:31;;;;;;;8.98;3.33;;;;;7.50;98786.00;;;;5035240;28;20045;-63
2023/12/20 09:47:58;;;;;;;9.85;3.20;;;;;7.50;98780.00;;;;5035560;28;20050;-62
2023/12/20 09:50:25;;;;;;;8.15;3.15;;;;;7.40;98781.00;;;;5035632;28;20410;-63
2023/12/20 09:52:53;;;;;;;6.07;3.10;;;;;7.40;98778.00;;;;5035392;28;20092;-63
2023/12/20 09:55:21;;;;;;;9.48;3.08;;;;;7.40;98783.00;;;;5035099;28;20128;-63
2023/12/20 09:57:49;;;;;;;6.55;2.67;;;;;7.40;98781.00;;;;5035411;28;20276;-63
2023/12/20 10:00:17;;;;;;;8.35;3.28;;;;;7.40;98769.00;;;;5035499;28;20056;-62
2023/12/20 10:02:59;;;;;;;8.98;3.53;;;;;7.40;98771.00;;;;5035348;28;20111;-62
2023/12/20 10:05:33;;;;;;;11.70;3.60;;;;;7.30;98770.00;;;;5034919;28;20052;-63
2023/12/20 10:08:00;;;;;;;7.10;3.30;;;;;7.30;98756.00;;;;5035149;28;20476;-62
2023/12/20 10:10:28;;;;;;;7.72;3.38;;;;;7.40;98767.00;;;;5035347;28;20045;-64
2023/12/20 10:13:11;;;;;;;8.07;2.95;;;;;7.30;98775.00;;;;5035175;28;20042;-61
2023/12/20 10:15:38;;;;;;;13.48;4.03;;;;;7.20;98761.00;;;;5034708;28;20046;-63
2023/12/20 10:18:05;;;;;;;8.35;3.55;;;;;7.20;98763.00;;;;5035110;28;20402;-63
2023/12/20 10:20:32;;;;;;;13.15;3.55;;;;;7.20;98757.00;;;;5035069;28;20144;-63
2023/12/20 10:23:00;;;;;;;24.65;11.82;;;;;7.20;98748.00;;;;5034957;28;20041;-63
2023/12/20 10:25:27;;;;;;;11.13;4.40;;;;;7.20;98746.00;;;;5034291;28;20042;-63
2023/12/20 10:28:17;;;;;;;9.50;3.50;;;;;7.10;98748.00;;;;5035156;28;20430;-62
2023/12/20 10:30:43;;;;;;;9.02;4.13;;;;;7.10;98752.00;;;;5034487;28;20426;-63
2023/12/20 10:33:10;;;;;;;9.48;4.00;;;;;7.10;98758.00;;;;5034881;28;20041;-63
2023/12/20 10:35:39;;;;;;;10.95;3.97;;;;;7.10;98763.00;;;;5034620;28;20042;-63
2023/12/20 10:38:13;;;;;;;12.82;3.90;;;;;7.10;98755.00;;;;5034864;28;20127;-63
2023/12/20 10:40:40;;;;;;;10.25;3.65;;;;;7.10;98757.00;;;;5034704;28;20444;-63
2023/12/20 10:43:08;;;;;;;8.60;3.65;;;;;7.10;98763.00;;;;5034687;28;20052;-63
2023/12/20 10:45:35;;;;;;;5.63;3.05;;;;;7.10;98747.00;;;;5033820;28;20049;-63
2023/12/20 10:48:03;;;;;;;11.82;3.92;;;;;7.00;98742.00;;;;5035336;28;20053;-63
2023/12/20 10:50:31;;;;;;;13.07;4.03;;;;;7.10;98740.00;;;;5034688;28;20099;-64
2023/12/20 10:52:58;;;;;;;8.10;3.78;;;;;7.10;98746.00;;;;5034596;28;20422;-63
2023/12/20 10:55:25;;;;;;;15.77;4.65;;;;;7.20;98742.00;;;;5032725;28;20045;-62
2023/12/20 10:57:59;;;;;;;9.35;3.30;;;;;7.20;98735.00;;;;5034310;28;20422;-63
2023/12/20 11:00:30;;;;;;;8.48;3.30;;;;;7.10;98731.00;;;;5033282;28;20572;-63
2023/12/20 11:03:00;;;;;;;10.00;2.60;;;;;7.10;98736.00;;;;5035105;28;20042;-64
2023/12/20 11:06:04;;;;;;;8.57;3.45;;;;;7.20;98727.00;;;;5034429;28;20402;-64
2023/12/20 11:08:49;;;;;;;12.10;3.42;;;;;7.10;98731.00;;;;5034313;28;20049;-64
2023/12/20 11:11:31;;;;;;;8.65;3.30;;;;;7.10;98723.00;;;;5034104;28;20128;-64
2023/12/20 11:14:08;;;;;;;8.45;3.00;;;;;7.10;98724.00;;;;5033688;28;20498;-63
2023/12/20 11:16:38;;;;;;;9.93;3.30;;;;;7.00;98730.00;;;;5033995;28;20069;-59
2023/12/20 11:19:18;;;;;;;6.10;2.85;;;;;7.10;98723.00;;;;5034097;28;20049;-61
2023/12/20 11:21:46;;;;;;;9.90;3.03;;;;;7.10;98725.00;;;;5033986;28;20046;-62
2023/12/20 11:24:12;;;;;;;8.27;3.50;;;;;7.20;98731.00;;;;5033557;28;20042;-62
2023/12/20 11:26:47;;;;;;;7.95;3.38;;;;;7.10;98712.00;;;;5034537;28;20045;-61
2023/12/20 11:29:35;;;;;;;8.93;3.28;;;;;7.20;98721.00;;;;5034235;28;20120;-61
2023/12/20 11:32:21;;;;;;;8.02;3.03;;;;;7.30;98709.00;;;;5034054;28;20049;-62
2023/12/20 11:34:50;;;;;;;6.88;2.88;;;;;7.40;98710.00;;;;5033684;28;20049;-63
2023/12/20 11:37:19;;;;;;;10.07;3.15;;;;;7.40;98708.00;;;;5034035;28;20159;-63
2023/12/20 11:39:59;;;;;;;13.75;3.33;;;;;7.50;98713.00;;;;5033467;28;20057;-63
2023/12/20 11:42:26;;;;;;;10.80;3.30;;;;;7.50;98709.00;;;;5032990;28;20068;-64
2023/12/20 11:44:53;;;;;;;11.05;3.20;;;;;7.50;98711.00;;;;5033257;28;20112;-64
2023/12/20 11:47:20;;;;;;;10.10;3.25;;;;;7.50;98710.00;;;;5036384;28;20049;-64
2023/12/20 11:49:48;;;;;;;17.40;4.18;;;;;7.60;98714.00;;;;5036541;28;20041;-63
2023/12/20 11:52:15;;;;;;;12.02;3.85;;;;;7.60;98710.00;;;;5036494;28;20046;-62
2023/12/20 11:54:41;;;;;;;14.40;4.55;;;;;7.50;98720.00;;;;5035899;28;20041;-63
2023/12/20 11:57:08;;;;;;;19.85;4.63;;;;;7.50;98722.00;;;;5036329;28;20133;-63
2023/12/20 11:59:36;;;;;;;21.20;5.80;;;;;7.60;98714.00;;;;5036885;28;20044;-64
2023/12/20 12:02:03;;;;;;;14.32;4.72;;;;;7.50;98717.00;;;;5037773;28;20052;-64
2023/12/20 12:04:29;;;;;;;17.25;4.80;;;;;7.50;98704.00;;;;5035339;28;20049;-62
2023/12/20 12:06:57;;;;;;;9.73;4.15;;;;;7.40;98711.00;;;;5035449;28;20053;-61
2023/12/20 12:09:23;;;;;;;12.80;4.22;;;;;7.40;98716.00;;;;5034592;28;20080;-64
2023/12/20 12:11:50;;;;;;;9.77;3.60;;;;;7.30;98703.00;;;;5033766;28;20137;-63
2023/12/20 12:14:19;;;;;;;9.65;3.97;;;;;7.20;98711.00;;;;5031426;28;20407;-63
2023/12/20 12:16:46;;;;;;;9.68;3.30;;;;;7.20;98703.00;;;;5031410;28;20435;-63
2023/12/20 12:19:23;;;;;;;8.93;3.00;;;;;7.20;98707.00;;;;5032722;28;20099;-62
2023/12/20 12:21:50;;;;;;;7.78;3.30;;;;;7.20;98709.00;;;;5031448;28;20080;-62
2023/12/20 12:24:21;;;;;;;8.98;3.10;;;;;7.20;98713.00;;;;5032074;28;20120;-63
2023/12/20 12:26:51;;;;;;;8.05;3.08;;;;;7.10;98712.00;;;;5031416;28;20155;-63
2023/12/20 12:29:18;;;;;;;10.25;2.72;;;;;7.10;98718.00;;;;5031663;28;20060;-63